sensor_id;sensor_type;location;lat;lon;timestamp;P1;durP1;ratioP1;P2;durP2;ratioP2
12880;SDS011;6508;53.786;9.996;2023-06-22T00:01:22;5.07;;;3.97;;
12880;SDS011;6508;53.786;9.996;2023-06-22T00:03:50;3.63;;;3.42;;
12880;SDS011;6508;53.786;9.996;2023-06-22T00:06:18;3.88;;;3.58;;
12880;SDS011;6508;53.786;9.996;2023-06-22T00:08:46;3.60;;;3.30;;
12880;SDS011;6508;53.786;9.996;2023-06-22T00:11:15;4.28;;;3.85;;
12880;SDS011;6508;53.786;9.996;2023-06-22T00:13:44;3.53;;;3.33;;
12880;SDS011;6508;53.786;9.996;2023-06-22T00:16:12;3.72;;;3.42;;
12880;SDS011;6508;53.786;9.996;2023-06-22T00:18:40;4.32;;;4.00;;
12880;SDS011;6508;53.786;9.996;2023-06-22T00:21:13;4.68;;;4.38;;
12880;SDS011;6508;53.786;9.996;2023-06-22T00:23:41;4.80;;;4.45;;
12880;SDS011;6508;53.786;9.996;2023-06-22T00:26:09;4.85;;;4.55;;
12880;SDS011;6508;53.786;9.996;2023-06-22T00:28:39;5.22;;;4.70;;
12880;SDS011;6508;53.786;9.996;2023-06-22T00:31:06;5.25;;;4.85;;
12880;SDS011;6508;53.786;9.996;2023-06-22T00:33:35;5.80;;;5.40;;
12880;SDS011;6508;53.786;9.996;2023-06-22T00:36:04;5.57;;;5.07;;
12880;SDS011;6508;53.786;9.996;2023-06-22T00:38:34;4.95;;;4.55;;
12880;SDS011;6508;53.786;9.996;2023-06-22T00:41:04;4.97;;;4.68;;
12880;SDS011;6508;53.786;9.996;2023-06-22T00:43:32;5.53;;;5.13;;
12880;SDS011;6508;53.786;9.996;2023-06-22T00:46:04;5.47;;;4.93;;
12880;SDS011;6508;53.786;9.996;2023-06-22T00:48:31;5.30;;;4.65;;
12880;SDS011;6508;53.786;9.996;2023-06-22T00:50:59;5.22;;;4.82;;
12880;SDS011;6508;53.786;9.996;2023-06-22T00:53:28;4.75;;;4.45;;
12880;SDS011;6508;53.786;9.996;2023-06-22T00:55:56;4.97;;;4.57;;
12880;SDS011;6508;53.786;9.996;2023-06-22T00:58:26;5.30;;;4.90;;
12880;SDS011;6508;53.786;9.996;2023-06-22T01:00:54;5.15;;;4.68;;
12880;SDS011;6508;53.786;9.996;2023-06-22T01:03:28;4.63;;;4.22;;
12880;SDS011;6508;53.786;9.996;2023-06-22T01:05:58;5.55;;;5.18;;
12880;SDS011;6508;53.786;9.996;2023-06-22T01:08:31;5.70;;;5.30;;
12880;SDS011;6508;53.786;9.996;2023-06-22T01:11:05;5.22;;;4.82;;
12880;SDS011;6508;53.786;9.996;2023-06-22T01:13:37;5.13;;;4.72;;
12880;SDS011;6508;53.786;9.996;2023-06-22T01:16:10;5.50;;;5.10;;
12880;SDS011;6508;53.786;9.996;2023-06-22T01:18:43;5.43;;;5.03;;
12880;SDS011;6508;53.786;9.996;2023-06-22T01:21:12;5.53;;;5.13;;
12880;SDS011;6508;53.786;9.996;2023-06-22T01:23:49;5.10;;;4.60;;
12880;SDS011;6508;53.786;9.996;2023-06-22T01:26:25;5.97;;;5.40;;
12880;SDS011;6508;53.786;9.996;2023-06-22T01:28:57;5.07;;;4.60;;
12880;SDS011;6508;53.786;9.996;2023-06-22T01:31:27;5.35;;;4.95;;
12880;SDS011;6508;53.786;9.996;2023-06-22T01:33:58;5.80;;;5.40;;
12880;SDS011;6508;53.786;9.996;2023-06-22T01:36:28;5.93;;;5.43;;
12880;SDS011;6508;53.786;9.996;2023-06-22T01:38:57;5.82;;;5.43;;
12880;SDS011;6508;53.786;9.996;2023-06-22T01:41:25;5.45;;;5.05;;
12880;SDS011;6508;53.786;9.996;2023-06-22T01:43:54;5.85;;;5.35;;
12880;SDS011;6508;53.786;9.996;2023-06-22T01:46:24;5.80;;;5.38;;
12880;SDS011;6508;53.786;9.996;2023-06-22T01:48:52;5.43;;;4.97;;
12880;SDS011;6508;53.786;9.996;2023-06-22T01:51:21;6.22;;;5.72;;
12880;SDS011;6508;53.786;9.996;2023-06-22T01:53:49;5.85;;;5.45;;
12880;SDS011;6508;53.786;9.996;2023-06-22T01:56:18;6.35;;;5.75;;
12880;SDS011;6508;53.786;9.996;2023-06-22T01:58:48;6.53;;;5.57;;
12880;SDS011;6508;53.786;9.996;2023-06-22T02:01:19;6.25;;;5.75;;
12880;SDS011;6508;53.786;9.996;2023-06-22T02:03:53;6.00;;;5.60;;
12880;SDS011;6508;53.786;9.996;2023-06-22T02:06:27;6.10;;;5.60;;
12880;SDS011;6508;53.786;9.996;2023-06-22T02:09:02;6.45;;;5.90;;
12880;SDS011;6508;53.786;9.996;2023-06-22T02:11:31;5.45;;;5.03;;
12880;SDS011;6508;53.786;9.996;2023-06-22T02:14:00;5.57;;;5.07;;
12880;SDS011;6508;53.786;9.996;2023-06-22T02:16:28;5.75;;;5.25;;
12880;SDS011;6508;53.786;9.996;2023-06-22T02:19:01;5.88;;;5.43;;
12880;SDS011;6508;53.786;9.996;2023-06-22T02:21:33;5.78;;;5.28;;
12880;SDS011;6508;53.786;9.996;2023-06-22T02:24:01;6.22;;;5.72;;
12880;SDS011;6508;53.786;9.996;2023-06-22T02:26:29;5.60;;;5.10;;
12880;SDS011;6508;53.786;9.996;2023-06-22T02:29:00;6.20;;;5.57;;
12880;SDS011;6508;53.786;9.996;2023-06-22T02:31:28;5.53;;;5.13;;
12880;SDS011;6508;53.786;9.996;2023-06-22T02:33:57;5.70;;;5.20;;
12880;SDS011;6508;53.786;9.996;2023-06-22T02:36:27;5.55;;;5.13;;
12880;SDS011;6508;53.786;9.996;2023-06-22T02:38:57;5.28;;;4.88;;
12880;SDS011;6508;53.786;9.996;2023-06-22T02:41:27;5.75;;;5.18;;
12880;SDS011;6508;53.786;9.996;2023-06-22T02:43:55;5.10;;;4.30;;
12880;SDS011;6508;53.786;9.996;2023-06-22T02:46:23;5.72;;;5.20;;
12880;SDS011;6508;53.786;9.996;2023-06-22T02:48:52;5.85;;;5.45;;
12880;SDS011;6508;53.786;9.996;2023-06-22T02:51:20;5.50;;;5.10;;
12880;SDS011;6508;53.786;9.996;2023-06-22T02:53:49;5.72;;;5.22;;
12880;SDS011;6508;53.786;9.996;2023-06-22T02:56:28;5.40;;;5.00;;
12880;SDS011;6508;53.786;9.996;2023-06-22T02:58:59;5.65;;;5.20;;
12880;SDS011;6508;53.786;9.996;2023-06-22T03:01:32;5.60;;;5.20;;
12880;SDS011;6508;53.786;9.996;2023-06-22T03:04:04;5.72;;;5.32;;
12880;SDS011;6508;53.786;9.996;2023-06-22T03:06:33;5.90;;;5.40;;
12880;SDS011;6508;53.786;9.996;2023-06-22T03:09:02;6.20;;;5.70;;
12880;SDS011;6508;53.786;9.996;2023-06-22T03:11:33;6.95;;;6.15;;
12880;SDS011;6508;53.786;9.996;2023-06-22T03:14:01;5.80;;;5.40;;
12880;SDS011;6508;53.786;9.996;2023-06-22T03:16:29;6.22;;;5.50;;
12880;SDS011;6508;53.786;9.996;2023-06-22T03:18:57;6.78;;;6.22;;
12880;SDS011;6508;53.786;9.996;2023-06-22T03:21:26;8.65;;;7.75;;
12880;SDS011;6508;53.786;9.996;2023-06-22T03:23:55;10.48;;;9.38;;
12880;SDS011;6508;53.786;9.996;2023-06-22T03:26:24;11.05;;;9.30;;
12880;SDS011;6508;53.786;9.996;2023-06-22T03:28:53;9.88;;;8.85;;
12880;SDS011;6508;53.786;9.996;2023-06-22T03:31:21;9.48;;;8.68;;
12880;SDS011;6508;53.786;9.996;2023-06-22T03:33:50;12.13;;;10.07;;
12880;SDS011;6508;53.786;9.996;2023-06-22T03:36:18;11.63;;;10.40;;
12880;SDS011;6508;53.786;9.996;2023-06-22T03:38:46;11.77;;;10.57;;
12880;SDS011;6508;53.786;9.996;2023-06-22T03:41:15;13.48;;;10.23;;
12880;SDS011;6508;53.786;9.996;2023-06-22T03:43:44;12.35;;;9.95;;
12880;SDS011;6508;53.786;9.996;2023-06-22T03:46:14;11.43;;;9.88;;
12880;SDS011;6508;53.786;9.996;2023-06-22T03:48:43;14.05;;;11.65;;
12880;SDS011;6508;53.786;9.996;2023-06-22T03:51:11;13.43;;;11.85;;
12880;SDS011;6508;53.786;9.996;2023-06-22T03:53:39;14.27;;;11.68;;
12880;SDS011;6508;53.786;9.996;2023-06-22T03:56:07;14.48;;;10.82;;
12880;SDS011;6508;53.786;9.996;2023-06-22T03:58:34;12.63;;;10.82;;
12880;SDS011;6508;53.786;9.996;2023-06-22T04:01:05;11.75;;;8.90;;
12880;SDS011;6508;53.786;9.996;2023-06-22T04:03:33;11.00;;;8.27;;
12880;SDS011;6508;53.786;9.996;2023-06-22T04:06:01;9.85;;;8.85;;
12880;SDS011;6508;53.786;9.996;2023-06-22T04:08:29;9.60;;;7.65;;
12880;SDS011;6508;53.786;9.996;2023-06-22T04:10:57;8.63;;;7.68;;
12880;SDS011;6508;53.786;9.996;2023-06-22T04:13:25;7.70;;;7.00;;
12880;SDS011;6508;53.786;9.996;2023-06-22T04:15:53;7.32;;;5.95;;
12880;SDS011;6508;53.786;9.996;2023-06-22T04:18:22;6.03;;;5.50;;
12880;SDS011;6508;53.786;9.996;2023-06-22T04:20:50;7.15;;;5.00;;
12880;SDS011;6508;53.786;9.996;2023-06-22T04:23:18;5.20;;;4.80;;
12880;SDS011;6508;53.786;9.996;2023-06-22T04:25:45;5.97;;;5.57;;
12880;SDS011;6508;53.786;9.996;2023-06-22T04:28:13;5.57;;;4.97;;
12880;SDS011;6508;53.786;9.996;2023-06-22T04:30:41;5.03;;;4.72;;
12880;SDS011;6508;53.786;9.996;2023-06-22T04:33:13;5.55;;;5.15;;
12880;SDS011;6508;53.786;9.996;2023-06-22T04:35:44;5.75;;;5.25;;
12880;SDS011;6508;53.786;9.996;2023-06-22T04:38:12;5.55;;;5.05;;
12880;SDS011;6508;53.786;9.996;2023-06-22T04:40:40;5.45;;;4.97;;
12880;SDS011;6508;53.786;9.996;2023-06-22T04:43:08;5.80;;;5.40;;
12880;SDS011;6508;53.786;9.996;2023-06-22T04:45:36;6.80;;;6.30;;
12880;SDS011;6508;53.786;9.996;2023-06-22T04:48:05;6.72;;;6.28;;
12880;SDS011;6508;53.786;9.996;2023-06-22T04:50:35;7.32;;;6.72;;
12880;SDS011;6508;53.786;9.996;2023-06-22T04:53:06;8.13;;;7.50;;
12880;SDS011;6508;53.786;9.996;2023-06-22T04:55:36;7.68;;;6.93;;
12880;SDS011;6508;53.786;9.996;2023-06-22T04:58:08;8.57;;;7.88;;
12880;SDS011;6508;53.786;9.996;2023-06-22T05:00:39;9.27;;;8.07;;
12880;SDS011;6508;53.786;9.996;2023-06-22T05:03:07;8.18;;;7.47;;
12880;SDS011;6508;53.786;9.996;2023-06-22T05:05:43;7.78;;;7.07;;
12880;SDS011;6508;53.786;9.996;2023-06-22T05:08:12;8.05;;;7.45;;
12880;SDS011;6508;53.786;9.996;2023-06-22T05:10:41;7.78;;;7.07;;
12880;SDS011;6508;53.786;9.996;2023-06-22T05:13:29;7.60;;;7.03;;
12880;SDS011;6508;53.786;9.996;2023-06-22T05:15:57;8.30;;;7.60;;
12880;SDS011;6508;53.786;9.996;2023-06-22T05:18:28;8.20;;;7.43;;
12880;SDS011;6508;53.786;9.996;2023-06-22T05:20:57;8.20;;;7.60;;
12880;SDS011;6508;53.786;9.996;2023-06-22T05:23:27;7.78;;;7.20;;
12880;SDS011;6508;53.786;9.996;2023-06-22T05:25:55;7.75;;;7.15;;
12880;SDS011;6508;53.786;9.996;2023-06-22T05:28:24;7.18;;;6.63;;
12880;SDS011;6508;53.786;9.996;2023-06-22T05:30:53;6.30;;;5.80;;
12880;SDS011;6508;53.786;9.996;2023-06-22T05:33:21;7.40;;;6.70;;
12880;SDS011;6508;53.786;9.996;2023-06-22T05:35:49;7.93;;;7.25;;
12880;SDS011;6508;53.786;9.996;2023-06-22T05:38:18;8.02;;;7.22;;
12880;SDS011;6508;53.786;9.996;2023-06-22T05:40:47;7.93;;;7.32;;
12880;SDS011;6508;53.786;9.996;2023-06-22T05:43:15;6.78;;;6.15;;
12880;SDS011;6508;53.786;9.996;2023-06-22T05:45:43;5.93;;;5.43;;
12880;SDS011;6508;53.786;9.996;2023-06-22T05:48:11;6.38;;;5.15;;
12880;SDS011;6508;53.786;9.996;2023-06-22T05:50:39;5.20;;;4.53;;
12880;SDS011;6508;53.786;9.996;2023-06-22T05:53:07;5.40;;;4.90;;
12880;SDS011;6508;53.786;9.996;2023-06-22T05:55:35;5.35;;;4.88;;
12880;SDS011;6508;53.786;9.996;2023-06-22T05:58:04;4.85;;;4.45;;
12880;SDS011;6508;53.786;9.996;2023-06-22T06:00:32;4.85;;;4.43;;
12880;SDS011;6508;53.786;9.996;2023-06-22T06:03:00;6.63;;;5.97;;
12880;SDS011;6508;53.786;9.996;2023-06-22T06:05:30;5.85;;;4.47;;
12880;SDS011;6508;53.786;9.996;2023-06-22T06:07:58;4.72;;;4.43;;
12880;SDS011;6508;53.786;9.996;2023-06-22T06:10:26;4.68;;;4.20;;
12880;SDS011;6508;53.786;9.996;2023-06-22T06:12:56;3.88;;;3.58;;
12880;SDS011;6508;53.786;9.996;2023-06-22T06:15:25;3.88;;;3.60;;
12880;SDS011;6508;53.786;9.996;2023-06-22T06:17:53;4.38;;;4.03;;
12880;SDS011;6508;53.786;9.996;2023-06-22T06:20:22;4.60;;;3.70;;
12880;SDS011;6508;53.786;9.996;2023-06-22T06:22:52;3.85;;;3.40;;
12880;SDS011;6508;53.786;9.996;2023-06-22T06:25:21;3.80;;;3.50;;
12880;SDS011;6508;53.786;9.996;2023-06-22T06:27:49;3.83;;;3.20;;
12880;SDS011;6508;53.786;9.996;2023-06-22T06:30:19;3.60;;;3.28;;
12880;SDS011;6508;53.786;9.996;2023-06-22T06:32:49;4.45;;;3.67;;
12880;SDS011;6508;53.786;9.996;2023-06-22T06:35:18;3.78;;;3.53;;
12880;SDS011;6508;53.786;9.996;2023-06-22T06:37:48;6.38;;;4.60;;
12880;SDS011;6508;53.786;9.996;2023-06-22T06:40:17;3.15;;;2.85;;
12880;SDS011;6508;53.786;9.996;2023-06-22T06:42:46;3.10;;;2.90;;
12880;SDS011;6508;53.786;9.996;2023-06-22T06:45:16;2.78;;;2.58;;
12880;SDS011;6508;53.786;9.996;2023-06-22T06:47:45;2.65;;;2.45;;
12880;SDS011;6508;53.786;9.996;2023-06-22T06:50:15;2.40;;;2.30;;
12880;SDS011;6508;53.786;9.996;2023-06-22T06:52:43;2.85;;;2.65;;
12880;SDS011;6508;53.786;9.996;2023-06-22T06:55:11;2.65;;;2.45;;
12880;SDS011;6508;53.786;9.996;2023-06-22T06:57:41;3.80;;;2.70;;
12880;SDS011;6508;53.786;9.996;2023-06-22T07:00:10;2.40;;;2.20;;
12880;SDS011;6508;53.786;9.996;2023-06-22T07:02:41;3.00;;;2.80;;
12880;SDS011;6508;53.786;9.996;2023-06-22T07:05:10;2.78;;;2.65;;
12880;SDS011;6508;53.786;9.996;2023-06-22T07:07:40;2.65;;;2.45;;
12880;SDS011;6508;53.786;9.996;2023-06-22T07:10:09;3.10;;;2.90;;
12880;SDS011;6508;53.786;9.996;2023-06-22T07:12:37;2.78;;;2.53;;
12880;SDS011;6508;53.786;9.996;2023-06-22T07:15:06;2.95;;;2.75;;
12880;SDS011;6508;53.786;9.996;2023-06-22T07:17:35;2.58;;;2.38;;
12880;SDS011;6508;53.786;9.996;2023-06-22T07:20:04;2.60;;;2.50;;
12880;SDS011;6508;53.786;9.996;2023-06-22T07:22:36;3.20;;;2.90;;
12880;SDS011;6508;53.786;9.996;2023-06-22T07:25:06;2.58;;;2.47;;
12880;SDS011;6508;53.786;9.996;2023-06-22T07:27:36;3.05;;;2.80;;
12880;SDS011;6508;53.786;9.996;2023-06-22T07:30:05;2.75;;;2.65;;
12880;SDS011;6508;53.786;9.996;2023-06-22T07:32:33;2.83;;;2.63;;
12880;SDS011;6508;53.786;9.996;2023-06-22T07:35:01;2.90;;;2.60;;
12880;SDS011;6508;53.786;9.996;2023-06-22T07:37:30;2.83;;;2.33;;
12880;SDS011;6508;53.786;9.996;2023-06-22T07:39:59;2.90;;;2.70;;
12880;SDS011;6508;53.786;9.996;2023-06-22T07:42:28;2.88;;;2.78;;
12880;SDS011;6508;53.786;9.996;2023-06-22T07:44:59;3.22;;;3.03;;
12880;SDS011;6508;53.786;9.996;2023-06-22T07:47:28;2.80;;;2.60;;
12880;SDS011;6508;53.786;9.996;2023-06-22T07:49:58;2.88;;;2.67;;
12880;SDS011;6508;53.786;9.996;2023-06-22T07:52:28;2.67;;;2.47;;
12880;SDS011;6508;53.786;9.996;2023-06-22T07:54:56;4.40;;;2.83;;
12880;SDS011;6508;53.786;9.996;2023-06-22T07:57:24;2.85;;;2.70;;
12880;SDS011;6508;53.786;9.996;2023-06-22T08:00:00;3.03;;;2.78;;
12880;SDS011;6508;53.786;9.996;2023-06-22T08:02:38;3.50;;;3.15;;
12880;SDS011;6508;53.786;9.996;2023-06-22T08:05:07;3.17;;;2.92;;
12880;SDS011;6508;53.786;9.996;2023-06-22T08:07:46;2.60;;;2.50;;
12880;SDS011;6508;53.786;9.996;2023-06-22T08:10:15;2.78;;;2.58;;
12880;SDS011;6508;53.786;9.996;2023-06-22T08:12:43;3.40;;;3.20;;
12880;SDS011;6508;53.786;9.996;2023-06-22T08:15:12;3.47;;;2.63;;
12880;SDS011;6508;53.786;9.996;2023-06-22T08:17:40;3.03;;;2.83;;
12880;SDS011;6508;53.786;9.996;2023-06-22T08:20:08;2.90;;;2.70;;
12880;SDS011;6508;53.786;9.996;2023-06-22T08:22:38;2.85;;;2.75;;
12880;SDS011;6508;53.786;9.996;2023-06-22T08:25:07;3.65;;;3.33;;
12880;SDS011;6508;53.786;9.996;2023-06-22T08:27:35;2.28;;;2.17;;
12880;SDS011;6508;53.786;9.996;2023-06-22T08:30:04;3.17;;;3.00;;
12880;SDS011;6508;53.786;9.996;2023-06-22T08:32:35;2.70;;;2.60;;
12880;SDS011;6508;53.786;9.996;2023-06-22T08:35:03;2.60;;;2.50;;
12880;SDS011;6508;53.786;9.996;2023-06-22T08:37:32;3.00;;;2.80;;
12880;SDS011;6508;53.786;9.996;2023-06-22T08:40:02;2.53;;;2.42;;
12880;SDS011;6508;53.786;9.996;2023-06-22T08:42:32;2.60;;;2.45;;
12880;SDS011;6508;53.786;9.996;2023-06-22T08:45:00;2.47;;;2.30;;
12880;SDS011;6508;53.786;9.996;2023-06-22T08:47:30;2.67;;;2.50;;
12880;SDS011;6508;53.786;9.996;2023-06-22T08:49:59;2.15;;;2.10;;
12880;SDS011;6508;53.786;9.996;2023-06-22T08:52:28;2.83;;;2.72;;
12880;SDS011;6508;53.786;9.996;2023-06-22T08:54:56;2.63;;;2.53;;
12880;SDS011;6508;53.786;9.996;2023-06-22T08:57:25;2.25;;;2.15;;
12880;SDS011;6508;53.786;9.996;2023-06-22T08:59:53;2.33;;;2.22;;
12880;SDS011;6508;53.786;9.996;2023-06-22T09:02:24;2.90;;;2.72;;
12880;SDS011;6508;53.786;9.996;2023-06-22T09:04:52;2.85;;;2.75;;
12880;SDS011;6508;53.786;9.996;2023-06-22T09:07:24;2.78;;;2.67;;
12880;SDS011;6508;53.786;9.996;2023-06-22T09:09:53;2.47;;;2.38;;
12880;SDS011;6508;53.786;9.996;2023-06-22T09:12:20;2.67;;;2.58;;
12880;SDS011;6508;53.786;9.996;2023-06-22T09:14:52;2.58;;;2.47;;
12880;SDS011;6508;53.786;9.996;2023-06-22T09:17:20;2.53;;;2.40;;
12880;SDS011;6508;53.786;9.996;2023-06-22T09:19:48;2.55;;;2.45;;
12880;SDS011;6508;53.786;9.996;2023-06-22T09:22:16;2.83;;;2.72;;
12880;SDS011;6508;53.786;9.996;2023-06-22T09:24:45;3.17;;;2.97;;
12880;SDS011;6508;53.786;9.996;2023-06-22T09:27:13;3.10;;;2.90;;
12880;SDS011;6508;53.786;9.996;2023-06-22T09:29:41;2.92;;;2.83;;
12880;SDS011;6508;53.786;9.996;2023-06-22T09:32:09;3.40;;;3.20;;
12880;SDS011;6508;53.786;9.996;2023-06-22T09:34:37;3.00;;;2.80;;
12880;SDS011;6508;53.786;9.996;2023-06-22T09:37:05;2.78;;;2.58;;
12880;SDS011;6508;53.786;9.996;2023-06-22T09:39:33;2.95;;;2.85;;
12880;SDS011;6508;53.786;9.996;2023-06-22T09:42:02;2.80;;;2.60;;
12880;SDS011;6508;53.786;9.996;2023-06-22T09:44:31;2.90;;;2.80;;
12880;SDS011;6508;53.786;9.996;2023-06-22T09:47:00;3.38;;;3.17;;
12880;SDS011;6508;53.786;9.996;2023-06-22T09:49:27;3.88;;;3.38;;
12880;SDS011;6508;53.786;9.996;2023-06-22T09:52:13;3.50;;;3.30;;
12880;SDS011;6508;53.786;9.996;2023-06-22T09:54:40;3.67;;;3.47;;
12880;SDS011;6508;53.786;9.996;2023-06-22T09:57:12;3.20;;;3.00;;
12880;SDS011;6508;53.786;9.996;2023-06-22T09:59:40;3.30;;;3.10;;
12880;SDS011;6508;53.786;9.996;2023-06-22T10:02:08;4.30;;;4.10;;
12880;SDS011;6508;53.786;9.996;2023-06-22T10:04:36;3.38;;;3.17;;
12880;SDS011;6508;53.786;9.996;2023-06-22T10:07:06;3.45;;;3.25;;
12880;SDS011;6508;53.786;9.996;2023-06-22T10:09:35;4.20;;;3.88;;
12880;SDS011;6508;53.786;9.996;2023-06-22T10:12:03;3.50;;;3.20;;
12880;SDS011;6508;53.786;9.996;2023-06-22T10:14:32;3.85;;;3.63;;
12880;SDS011;6508;53.786;9.996;2023-06-22T10:17:00;3.40;;;3.30;;
12880;SDS011;6508;53.786;9.996;2023-06-22T10:19:28;3.30;;;3.20;;
12880;SDS011;6508;53.786;9.996;2023-06-22T10:21:55;3.78;;;3.58;;
12880;SDS011;6508;53.786;9.996;2023-06-22T10:24:23;4.20;;;4.00;;
12880;SDS011;6508;53.786;9.996;2023-06-22T10:26:51;4.30;;;4.00;;
12880;SDS011;6508;53.786;9.996;2023-06-22T10:29:19;3.85;;;3.65;;
12880;SDS011;6508;53.786;9.996;2023-06-22T10:31:49;4.85;;;4.38;;
12880;SDS011;6508;53.786;9.996;2023-06-22T10:34:17;5.03;;;4.53;;
12880;SDS011;6508;53.786;9.996;2023-06-22T10:36:44;4.30;;;4.10;;
12880;SDS011;6508;53.786;9.996;2023-06-22T10:39:15;4.07;;;3.85;;
12880;SDS011;6508;53.786;9.996;2023-06-22T10:41:43;4.78;;;4.50;;
12880;SDS011;6508;53.786;9.996;2023-06-22T10:44:11;4.03;;;3.83;;
12880;SDS011;6508;53.786;9.996;2023-06-22T10:46:40;3.80;;;3.60;;
12880;SDS011;6508;53.786;9.996;2023-06-22T10:49:09;3.97;;;3.78;;
12880;SDS011;6508;53.786;9.996;2023-06-22T10:51:37;4.68;;;4.38;;
12880;SDS011;6508;53.786;9.996;2023-06-22T10:54:05;4.50;;;4.30;;
12880;SDS011;6508;53.786;9.996;2023-06-22T10:56:33;3.80;;;3.60;;
12880;SDS011;6508;53.786;9.996;2023-06-22T10:59:00;3.80;;;3.60;;
12880;SDS011;6508;53.786;9.996;2023-06-22T11:01:29;4.10;;;3.90;;
12880;SDS011;6508;53.786;9.996;2023-06-22T11:04:02;3.83;;;3.65;;
12880;SDS011;6508;53.786;9.996;2023-06-22T11:06:32;3.80;;;3.60;;
12880;SDS011;6508;53.786;9.996;2023-06-22T11:09:00;3.45;;;3.30;;
12880;SDS011;6508;53.786;9.996;2023-06-22T11:11:49;4.20;;;3.97;;
12880;SDS011;6508;53.786;9.996;2023-06-22T11:14:20;4.00;;;3.72;;
12880;SDS011;6508;53.786;9.996;2023-06-22T11:16:48;3.28;;;3.15;;
12880;SDS011;6508;53.786;9.996;2023-06-22T11:19:16;3.63;;;3.50;;
12880;SDS011;6508;53.786;9.996;2023-06-22T11:21:46;4.45;;;4.15;;
12880;SDS011;6508;53.786;9.996;2023-06-22T11:24:14;4.32;;;4.00;;
12880;SDS011;6508;53.786;9.996;2023-06-22T11:26:43;4.13;;;3.92;;
12880;SDS011;6508;53.786;9.996;2023-06-22T11:29:11;3.70;;;3.50;;
12880;SDS011;6508;53.786;9.996;2023-06-22T11:31:57;4.35;;;4.05;;
12880;SDS011;6508;53.786;9.996;2023-06-22T11:34:25;3.67;;;3.35;;
12880;SDS011;6508;53.786;9.996;2023-06-22T11:36:55;3.38;;;3.17;;
12880;SDS011;6508;53.786;9.996;2023-06-22T11:39:23;3.88;;;3.67;;
12880;SDS011;6508;53.786;9.996;2023-06-22T11:42:08;4.60;;;4.20;;
12880;SDS011;6508;53.786;9.996;2023-06-22T11:44:36;4.97;;;4.65;;
12880;SDS011;6508;53.786;9.996;2023-06-22T11:47:04;4.55;;;4.25;;
12880;SDS011;6508;53.786;9.996;2023-06-22T11:49:32;4.32;;;4.13;;
12880;SDS011;6508;53.786;9.996;2023-06-22T11:52:02;3.70;;;3.50;;
12880;SDS011;6508;53.786;9.996;2023-06-22T11:54:30;4.00;;;3.80;;
12880;SDS011;6508;53.786;9.996;2023-06-22T11:56:57;4.20;;;3.90;;
12880;SDS011;6508;53.786;9.996;2023-06-22T11:59:25;3.83;;;3.63;;
12880;SDS011;6508;53.786;9.996;2023-06-22T12:01:53;3.90;;;3.50;;
12880;SDS011;6508;53.786;9.996;2023-06-22T12:04:21;4.38;;;4.07;;
12880;SDS011;6508;53.786;9.996;2023-06-22T12:06:49;4.60;;;4.10;;
12880;SDS011;6508;53.786;9.996;2023-06-22T12:09:18;3.78;;;3.58;;
12880;SDS011;6508;53.786;9.996;2023-06-22T12:11:46;4.25;;;4.05;;
12880;SDS011;6508;53.786;9.996;2023-06-22T12:14:14;4.53;;;4.32;;
12880;SDS011;6508;53.786;9.996;2023-06-22T12:16:42;4.70;;;4.47;;
12880;SDS011;6508;53.786;9.996;2023-06-22T12:19:11;5.93;;;5.05;;
12880;SDS011;6508;53.786;9.996;2023-06-22T12:21:39;5.05;;;4.75;;
12880;SDS011;6508;53.786;9.996;2023-06-22T12:24:07;5.18;;;4.70;;
12880;SDS011;6508;53.786;9.996;2023-06-22T12:26:37;5.22;;;4.93;;
12880;SDS011;6508;53.786;9.996;2023-06-22T12:29:04;5.05;;;4.80;;
12880;SDS011;6508;53.786;9.996;2023-06-22T12:31:32;4.75;;;4.55;;
12880;SDS011;6508;53.786;9.996;2023-06-22T12:34:00;5.60;;;5.20;;
12880;SDS011;6508;53.786;9.996;2023-06-22T12:36:28;5.00;;;4.70;;
12880;SDS011;6508;53.786;9.996;2023-06-22T12:38:56;4.90;;;4.20;;
12880;SDS011;6508;53.786;9.996;2023-06-22T12:41:24;5.32;;;5.03;;
12880;SDS011;6508;53.786;9.996;2023-06-22T12:43:54;5.03;;;4.75;;
12880;SDS011;6508;53.786;9.996;2023-06-22T12:46:22;4.90;;;4.70;;
12880;SDS011;6508;53.786;9.996;2023-06-22T12:48:50;5.18;;;4.88;;
12880;SDS011;6508;53.786;9.996;2023-06-22T12:51:20;4.88;;;4.57;;
12880;SDS011;6508;53.786;9.996;2023-06-22T12:53:50;5.72;;;4.70;;
12880;SDS011;6508;53.786;9.996;2023-06-22T12:56:17;7.65;;;4.70;;
12880;SDS011;6508;53.786;9.996;2023-06-22T12:58:46;5.20;;;4.90;;
12880;SDS011;6508;53.786;9.996;2023-06-22T13:01:15;5.05;;;4.85;;
12880;SDS011;6508;53.786;9.996;2023-06-22T13:03:44;5.03;;;4.68;;
12880;SDS011;6508;53.786;9.996;2023-06-22T13:06:13;6.40;;;5.97;;
12880;SDS011;6508;53.786;9.996;2023-06-22T13:08:40;5.05;;;4.70;;
12880;SDS011;6508;53.786;9.996;2023-06-22T13:11:29;4.20;;;4.00;;
12880;SDS011;6508;53.786;9.996;2023-06-22T13:13:57;4.78;;;4.50;;
12880;SDS011;6508;53.786;9.996;2023-06-22T13:16:27;4.78;;;4.45;;
12880;SDS011;6508;53.786;9.996;2023-06-22T13:18:54;5.60;;;5.25;;
12880;SDS011;6508;53.786;9.996;2023-06-22T13:21:22;5.40;;;5.00;;
12880;SDS011;6508;53.786;9.996;2023-06-22T13:23:50;4.90;;;4.50;;
12880;SDS011;6508;53.786;9.996;2023-06-22T13:26:18;4.80;;;4.50;;
12880;SDS011;6508;53.786;9.996;2023-06-22T13:28:46;5.20;;;4.80;;
12880;SDS011;6508;53.786;9.996;2023-06-22T13:31:13;5.07;;;4.78;;
12880;SDS011;6508;53.786;9.996;2023-06-22T13:33:43;4.47;;;4.28;;
12880;SDS011;6508;53.786;9.996;2023-06-22T13:36:14;4.70;;;4.50;;
12880;SDS011;6508;53.786;9.996;2023-06-22T13:38:42;5.28;;;4.75;;
12880;SDS011;6508;53.786;9.996;2023-06-22T13:41:09;4.90;;;4.60;;
12880;SDS011;6508;53.786;9.996;2023-06-22T13:43:37;4.75;;;4.55;;
12880;SDS011;6508;53.786;9.996;2023-06-22T13:46:05;4.72;;;4.53;;
12880;SDS011;6508;53.786;9.996;2023-06-22T13:48:33;4.72;;;4.43;;
12880;SDS011;6508;53.786;9.996;2023-06-22T13:51:03;4.55;;;4.35;;
12880;SDS011;6508;53.786;9.996;2023-06-22T13:53:30;4.93;;;4.65;;
12880;SDS011;6508;53.786;9.996;2023-06-22T13:55:58;4.50;;;4.25;;
12880;SDS011;6508;53.786;9.996;2023-06-22T13:58:26;5.28;;;4.93;;
12880;SDS011;6508;53.786;9.996;2023-06-22T14:00:54;4.72;;;4.43;;
12880;SDS011;6508;53.786;9.996;2023-06-22T14:03:22;5.07;;;4.80;;
12880;SDS011;6508;53.786;9.996;2023-06-22T14:05:50;20.02;;;4.60;;
12880;SDS011;6508;53.786;9.996;2023-06-22T14:08:22;5.38;;;5.07;;
12880;SDS011;6508;53.786;9.996;2023-06-22T14:11:11;5.20;;;4.90;;
12880;SDS011;6508;53.786;9.996;2023-06-22T14:13:40;4.95;;;4.65;;
12880;SDS011;6508;53.786;9.996;2023-06-22T14:16:09;4.72;;;4.43;;
12880;SDS011;6508;53.786;9.996;2023-06-22T14:18:37;4.28;;;4.07;;
12880;SDS011;6508;53.786;9.996;2023-06-22T14:21:05;4.78;;;4.47;;
12880;SDS011;6508;53.786;9.996;2023-06-22T14:23:34;4.90;;;4.70;;
12880;SDS011;6508;53.786;9.996;2023-06-22T14:26:03;4.95;;;4.65;;
12880;SDS011;6508;53.786;9.996;2023-06-22T14:28:31;4.65;;;4.35;;
12880;SDS011;6508;53.786;9.996;2023-06-22T14:30:59;4.50;;;4.30;;
12880;SDS011;6508;53.786;9.996;2023-06-22T14:33:28;5.32;;;5.05;;
12880;SDS011;6508;53.786;9.996;2023-06-22T14:35:55;4.78;;;4.57;;
12880;SDS011;6508;53.786;9.996;2023-06-22T14:38:23;4.65;;;4.35;;
12880;SDS011;6508;53.786;9.996;2023-06-22T14:40:52;4.28;;;3.88;;
12880;SDS011;6508;53.786;9.996;2023-06-22T14:43:25;4.40;;;4.10;;
12880;SDS011;6508;53.786;9.996;2023-06-22T14:45:53;4.88;;;4.55;;
12880;SDS011;6508;53.786;9.996;2023-06-22T14:48:21;5.00;;;4.70;;
12880;SDS011;6508;53.786;9.996;2023-06-22T14:50:50;4.82;;;4.53;;
12880;SDS011;6508;53.786;9.996;2023-06-22T14:53:20;5.18;;;4.82;;
12880;SDS011;6508;53.786;9.996;2023-06-22T14:55:48;4.55;;;4.25;;
12880;SDS011;6508;53.786;9.996;2023-06-22T14:58:17;4.50;;;4.30;;
12880;SDS011;6508;53.786;9.996;2023-06-22T15:00:45;5.30;;;5.00;;
12880;SDS011;6508;53.786;9.996;2023-06-22T15:03:12;5.22;;;4.93;;
12880;SDS011;6508;53.786;9.996;2023-06-22T15:05:45;8.35;;;4.45;;
12880;SDS011;6508;53.786;9.996;2023-06-22T15:08:13;4.78;;;4.38;;
12880;SDS011;6508;53.786;9.996;2023-06-22T15:10:41;4.88;;;4.63;;
12880;SDS011;6508;53.786;9.996;2023-06-22T15:13:10;4.10;;;3.90;;